sensor_id;sensor_type;location;lat;lon;timestamp;P1;durP1;ratioP1;P2;durP2;ratioP2
11854;SDS011;5987;53.140;8.904;2023-04-24T00:00:17;1.60;;;1.50;;
11854;SDS011;5987;53.140;8.904;2023-04-24T00:03:22;2.40;;;1.60;;
11854;SDS011;5987;53.140;8.904;2023-04-24T00:06:26;2.17;;;1.90;;
11854;SDS011;5987;53.140;8.904;2023-04-24T00:09:34;2.10;;;1.93;;
11854;SDS011;5987;53.140;8.904;2023-04-24T00:12:37;1.83;;;1.73;;
11854;SDS011;5987;53.140;8.904;2023-04-24T00:15:41;2.47;;;1.80;;
11854;SDS011;5987;53.140;8.904;2023-04-24T00:18:46;1.63;;;1.50;;
11854;SDS011;5987;53.140;8.904;2023-04-24T00:21:50;1.97;;;1.80;;
11854;SDS011;5987;53.140;8.904;2023-04-24T00:24:55;1.60;;;1.50;;
11854;SDS011;5987;53.140;8.904;2023-04-24T00:27:59;1.87;;;1.77;;
11854;SDS011;5987;53.140;8.904;2023-04-24T00:31:03;2.30;;;2.07;;
11854;SDS011;5987;53.140;8.904;2023-04-24T00:34:08;2.33;;;2.13;;
11854;SDS011;5987;53.140;8.904;2023-04-24T00:37:13;2.30;;;2.10;;
11854;SDS011;5987;53.140;8.904;2023-04-24T00:40:16;2.13;;;2.00;;
11854;SDS011;5987;53.140;8.904;2023-04-24T00:43:20;3.87;;;2.30;;
11854;SDS011;5987;53.140;8.904;2023-04-24T00:46:24;3.00;;;2.33;;
11854;SDS011;5987;53.140;8.904;2023-04-24T00:49:29;2.80;;;2.30;;
11854;SDS011;5987;53.140;8.904;2023-04-24T00:52:32;2.70;;;2.27;;
11854;SDS011;5987;53.140;8.904;2023-04-24T00:55:36;2.40;;;2.20;;
11854;SDS011;5987;53.140;8.904;2023-04-24T00:58:39;3.00;;;2.10;;
11854;SDS011;5987;53.140;8.904;2023-04-24T01:01:44;4.63;;;2.53;;
11854;SDS011;5987;53.140;8.904;2023-04-24T01:04:50;2.07;;;1.83;;
11854;SDS011;5987;53.140;8.904;2023-04-24T01:07:54;2.50;;;2.30;;
11854;SDS011;5987;53.140;8.904;2023-04-24T01:10:59;2.40;;;1.60;;
11854;SDS011;5987;53.140;8.904;2023-04-24T01:14:07;2.20;;;1.90;;
11854;SDS011;5987;53.140;8.904;2023-04-24T01:17:11;1.80;;;1.70;;
11854;SDS011;5987;53.140;8.904;2023-04-24T01:20:18;1.40;;;1.30;;
11854;SDS011;5987;53.140;8.904;2023-04-24T01:23:23;1.67;;;1.57;;
11854;SDS011;5987;53.140;8.904;2023-04-24T01:26:27;2.10;;;1.90;;
11854;SDS011;5987;53.140;8.904;2023-04-24T01:29:30;1.77;;;1.67;;
11854;SDS011;5987;53.140;8.904;2023-04-24T01:32:35;1.77;;;1.67;;
11854;SDS011;5987;53.140;8.904;2023-04-24T01:35:40;3.20;;;1.70;;
11854;SDS011;5987;53.140;8.904;2023-04-24T01:38:45;1.97;;;1.67;;
11854;SDS011;5987;53.140;8.904;2023-04-24T01:41:49;1.90;;;1.57;;
11854;SDS011;5987;53.140;8.904;2023-04-24T01:44:53;2.60;;;1.80;;
11854;SDS011;5987;53.140;8.904;2023-04-24T01:47:57;2.33;;;1.50;;
11854;SDS011;5987;53.140;8.904;2023-04-24T01:51:01;1.47;;;1.37;;
11854;SDS011;5987;53.140;8.904;2023-04-24T01:54:06;1.67;;;1.57;;
11854;SDS011;5987;53.140;8.904;2023-04-24T01:57:10;1.93;;;1.70;;
11854;SDS011;5987;53.140;8.904;2023-04-24T02:00:14;1.93;;;1.30;;
11854;SDS011;5987;53.140;8.904;2023-04-24T02:03:17;3.67;;;1.63;;
11854;SDS011;5987;53.140;8.904;2023-04-24T02:06:21;1.47;;;1.37;;
11854;SDS011;5987;53.140;8.904;2023-04-24T02:09:26;1.63;;;1.53;;
11854;SDS011;5987;53.140;8.904;2023-04-24T02:12:30;1.70;;;1.60;;
11854;SDS011;5987;53.140;8.904;2023-04-24T02:15:33;3.00;;;1.93;;
11854;SDS011;5987;53.140;8.904;2023-04-24T02:18:37;2.00;;;1.70;;
11854;SDS011;5987;53.140;8.904;2023-04-24T02:21:40;1.87;;;1.77;;
11854;SDS011;5987;53.140;8.904;2023-04-24T02:24:47;1.80;;;1.70;;
11854;SDS011;5987;53.140;8.904;2023-04-24T02:27:50;2.03;;;1.67;;
11854;SDS011;5987;53.140;8.904;2023-04-24T02:30:54;1.60;;;1.50;;
11854;SDS011;5987;53.140;8.904;2023-04-24T02:33:57;2.00;;;1.50;;
11854;SDS011;5987;53.140;8.904;2023-04-24T02:37:01;2.30;;;1.90;;
11854;SDS011;5987;53.140;8.904;2023-04-24T02:40:07;2.30;;;2.10;;
11854;SDS011;5987;53.140;8.904;2023-04-24T02:43:12;2.13;;;2.03;;
11854;SDS011;5987;53.140;8.904;2023-04-24T02:46:15;2.90;;;2.70;;
11854;SDS011;5987;53.140;8.904;2023-04-24T02:49:19;4.23;;;2.70;;
11854;SDS011;5987;53.140;8.904;2023-04-24T02:52:23;2.87;;;2.67;;
11854;SDS011;5987;53.140;8.904;2023-04-24T02:55:28;5.73;;;2.70;;
11854;SDS011;5987;53.140;8.904;2023-04-24T02:58:31;2.60;;;2.40;;
11854;SDS011;5987;53.140;8.904;2023-04-24T03:01:35;2.60;;;2.40;;
11854;SDS011;5987;53.140;8.904;2023-04-24T03:04:39;2.20;;;2.03;;
11854;SDS011;5987;53.140;8.904;2023-04-24T03:07:44;2.53;;;2.03;;
11854;SDS011;5987;53.140;8.904;2023-04-24T03:10:49;3.00;;;2.70;;
11854;SDS011;5987;53.140;8.904;2023-04-24T03:13:53;3.43;;;2.60;;
11854;SDS011;5987;53.140;8.904;2023-04-24T03:16:56;3.13;;;2.53;;
11854;SDS011;5987;53.140;8.904;2023-04-24T03:20:00;2.50;;;2.20;;
11854;SDS011;5987;53.140;8.904;2023-04-24T03:23:03;2.77;;;2.57;;
11854;SDS011;5987;53.140;8.904;2023-04-24T03:26:08;2.30;;;2.20;;
11854;SDS011;5987;53.140;8.904;2023-04-24T03:29:12;1.90;;;1.80;;
11854;SDS011;5987;53.140;8.904;2023-04-24T03:32:15;3.43;;;2.53;;
11854;SDS011;5987;53.140;8.904;2023-04-24T03:35:19;2.60;;;2.30;;
11854;SDS011;5987;53.140;8.904;2023-04-24T03:38:23;5.13;;;2.20;;
11854;SDS011;5987;53.140;8.904;2023-04-24T03:41:28;3.57;;;2.30;;
11854;SDS011;5987;53.140;8.904;2023-04-24T03:44:32;4.30;;;2.10;;
11854;SDS011;5987;53.140;8.904;2023-04-24T03:47:36;3.67;;;1.90;;
11854;SDS011;5987;53.140;8.904;2023-04-24T03:50:39;5.03;;;1.90;;
11854;SDS011;5987;53.140;8.904;2023-04-24T03:53:43;3.00;;;1.80;;
11854;SDS011;5987;53.140;8.904;2023-04-24T03:56:48;3.07;;;2.03;;
11854;SDS011;5987;53.140;8.904;2023-04-24T03:59:51;2.60;;;1.70;;
11854;SDS011;5987;53.140;8.904;2023-04-24T04:02:55;2.67;;;1.70;;
11854;SDS011;5987;53.140;8.904;2023-04-24T04:05:59;2.10;;;2.00;;
11854;SDS011;5987;53.140;8.904;2023-04-24T04:09:02;2.43;;;2.23;;
11854;SDS011;5987;53.140;8.904;2023-04-24T04:12:07;2.87;;;1.97;;
11854;SDS011;5987;53.140;8.904;2023-04-24T04:15:11;1.80;;;1.70;;
11854;SDS011;5987;53.140;8.904;2023-04-24T04:18:14;2.60;;;2.07;;
11854;SDS011;5987;53.140;8.904;2023-04-24T04:21:18;1.40;;;1.30;;
11854;SDS011;5987;53.140;8.904;2023-04-24T04:24:21;2.33;;;1.60;;
11854;SDS011;5987;53.140;8.904;2023-04-24T04:27:27;2.17;;;1.60;;
11854;SDS011;5987;53.140;8.904;2023-04-24T04:30:33;2.50;;;1.87;;
11854;SDS011;5987;53.140;8.904;2023-04-24T04:33:39;2.77;;;2.07;;
11854;SDS011;5987;53.140;8.904;2023-04-24T04:36:43;4.17;;;1.70;;
11854;SDS011;5987;53.140;8.904;2023-04-24T04:39:47;1.73;;;1.63;;
11854;SDS011;5987;53.140;8.904;2023-04-24T04:42:52;2.80;;;1.83;;
11854;SDS011;5987;53.140;8.904;2023-04-24T04:45:57;1.50;;;1.40;;
11854;SDS011;5987;53.140;8.904;2023-04-24T04:49:02;2.33;;;1.40;;
11854;SDS011;5987;53.140;8.904;2023-04-24T04:52:06;1.30;;;1.20;;
11854;SDS011;5987;53.140;8.904;2023-04-24T04:55:09;1.37;;;1.27;;
11854;SDS011;5987;53.140;8.904;2023-04-24T04:58:16;2.00;;;1.70;;
11854;SDS011;5987;53.140;8.904;2023-04-24T05:01:19;1.30;;;1.20;;
11854;SDS011;5987;53.140;8.904;2023-04-24T05:04:24;2.10;;;1.50;;
11854;SDS011;5987;53.140;8.904;2023-04-24T05:07:28;1.93;;;1.70;;
11854;SDS011;5987;53.140;8.904;2023-04-24T05:10:32;2.43;;;1.90;;
11854;SDS011;5987;53.140;8.904;2023-04-24T05:13:37;2.77;;;1.87;;
11854;SDS011;5987;53.140;8.904;2023-04-24T05:16:41;2.40;;;1.87;;
11854;SDS011;5987;53.140;8.904;2023-04-24T05:19:45;2.57;;;1.77;;
11854;SDS011;5987;53.140;8.904;2023-04-24T05:22:49;2.23;;;2.00;;
11854;SDS011;5987;53.140;8.904;2023-04-24T05:25:53;2.13;;;1.80;;
11854;SDS011;5987;53.140;8.904;2023-04-24T05:28:58;5.43;;;2.00;;
11854;SDS011;5987;53.140;8.904;2023-04-24T05:32:01;2.80;;;1.53;;
11854;SDS011;5987;53.140;8.904;2023-04-24T05:35:05;3.90;;;2.40;;
11854;SDS011;5987;53.140;8.904;2023-04-24T05:38:10;2.00;;;1.80;;
11854;SDS011;5987;53.140;8.904;2023-04-24T05:41:13;4.07;;;3.10;;
11854;SDS011;5987;53.140;8.904;2023-04-24T05:44:18;2.70;;;1.87;;
11854;SDS011;5987;53.140;8.904;2023-04-24T05:47:22;4.07;;;2.60;;
11854;SDS011;5987;53.140;8.904;2023-04-24T05:50:27;2.87;;;2.07;;
11854;SDS011;5987;53.140;8.904;2023-04-24T05:53:31;2.97;;;2.67;;
11854;SDS011;5987;53.140;8.904;2023-04-24T05:56:35;2.50;;;2.30;;
11854;SDS011;5987;53.140;8.904;2023-04-24T05:59:41;3.33;;;2.87;;
11854;SDS011;5987;53.140;8.904;2023-04-24T06:02:45;3.67;;;3.37;;
11854;SDS011;5987;53.140;8.904;2023-04-24T06:05:49;3.90;;;3.37;;
11854;SDS011;5987;53.140;8.904;2023-04-24T06:08:53;3.30;;;3.00;;
11854;SDS011;5987;53.140;8.904;2023-04-24T06:11:58;4.50;;;3.83;;
11854;SDS011;5987;53.140;8.904;2023-04-24T06:15:04;6.10;;;3.93;;
11854;SDS011;5987;53.140;8.904;2023-04-24T06:18:09;3.67;;;3.37;;
11854;SDS011;5987;53.140;8.904;2023-04-24T06:21:16;4.07;;;3.67;;
11854;SDS011;5987;53.140;8.904;2023-04-24T06:24:19;4.80;;;4.20;;
11854;SDS011;5987;53.140;8.904;2023-04-24T06:27:23;7.67;;;4.73;;
11854;SDS011;5987;53.140;8.904;2023-04-24T06:30:28;5.27;;;4.73;;
11854;SDS011;5987;53.140;8.904;2023-04-24T06:33:32;4.70;;;4.20;;
11854;SDS011;5987;53.140;8.904;2023-04-24T06:36:35;6.57;;;4.50;;
11854;SDS011;5987;53.140;8.904;2023-04-24T06:39:39;4.43;;;3.93;;
11854;SDS011;5987;53.140;8.904;2023-04-24T06:42:43;6.37;;;4.87;;
11854;SDS011;5987;53.140;8.904;2023-04-24T06:45:48;5.73;;;4.37;;
11854;SDS011;5987;53.140;8.904;2023-04-24T06:48:52;5.37;;;4.87;;
11854;SDS011;5987;53.140;8.904;2023-04-24T06:51:57;5.20;;;4.70;;
11854;SDS011;5987;53.140;8.904;2023-04-24T06:55:00;6.00;;;5.23;;
11854;SDS011;5987;53.140;8.904;2023-04-24T06:58:05;6.50;;;5.90;;
11854;SDS011;5987;53.140;8.904;2023-04-24T07:01:10;7.13;;;6.30;;
11854;SDS011;5987;53.140;8.904;2023-04-24T07:04:14;8.30;;;7.27;;
11854;SDS011;5987;53.140;8.904;2023-04-24T07:07:18;10.70;;;7.93;;
11854;SDS011;5987;53.140;8.904;2023-04-24T07:10:25;9.10;;;8.20;;
11854;SDS011;5987;53.140;8.904;2023-04-24T07:13:29;9.47;;;8.57;;
11854;SDS011;5987;53.140;8.904;2023-04-24T07:16:34;9.80;;;8.27;;
11854;SDS011;5987;53.140;8.904;2023-04-24T07:19:38;11.57;;;9.10;;
11854;SDS011;5987;53.140;8.904;2023-04-24T07:22:42;11.50;;;8.63;;
11854;SDS011;5987;53.140;8.904;2023-04-24T07:25:46;9.80;;;8.80;;
11854;SDS011;5987;53.140;8.904;2023-04-24T07:28:49;9.80;;;7.87;;
11854;SDS011;5987;53.140;8.904;2023-04-24T07:31:54;14.10;;;9.13;;
11854;SDS011;5987;53.140;8.904;2023-04-24T07:34:58;9.77;;;8.00;;
11854;SDS011;5987;53.140;8.904;2023-04-24T07:38:04;11.97;;;9.07;;
11854;SDS011;5987;53.140;8.904;2023-04-24T07:41:08;9.40;;;7.77;;
11854;SDS011;5987;53.140;8.904;2023-04-24T07:44:12;8.43;;;7.47;;
11854;SDS011;5987;53.140;8.904;2023-04-24T07:47:17;9.00;;;7.20;;
11854;SDS011;5987;53.140;8.904;2023-04-24T07:50:21;8.83;;;7.43;;
11854;SDS011;5987;53.140;8.904;2023-04-24T07:53:25;8.43;;;6.47;;
11854;SDS011;5987;53.140;8.904;2023-04-24T07:56:28;10.93;;;7.00;;
11854;SDS011;5987;53.140;8.904;2023-04-24T07:59:33;7.57;;;6.50;;
11854;SDS011;5987;53.140;8.904;2023-04-24T08:02:38;8.30;;;6.50;;
11854;SDS011;5987;53.140;8.904;2023-04-24T08:05:41;8.30;;;6.10;;
11854;SDS011;5987;53.140;8.904;2023-04-24T08:08:45;9.27;;;6.60;;
11854;SDS011;5987;53.140;8.904;2023-04-24T08:11:49;7.70;;;6.20;;
11854;SDS011;5987;53.140;8.904;2023-04-24T08:14:52;8.70;;;6.97;;
11854;SDS011;5987;53.140;8.904;2023-04-24T08:17:58;9.20;;;6.07;;
11854;SDS011;5987;53.140;8.904;2023-04-24T08:21:01;6.77;;;6.03;;
11854;SDS011;5987;53.140;8.904;2023-04-24T08:24:06;7.33;;;6.20;;
11854;SDS011;5987;53.140;8.904;2023-04-24T08:27:10;8.53;;;6.43;;
11854;SDS011;5987;53.140;8.904;2023-04-24T08:30:13;7.53;;;6.70;;
11854;SDS011;5987;53.140;8.904;2023-04-24T08:33:19;14.13;;;7.07;;
11854;SDS011;5987;53.140;8.904;2023-04-24T08:36:22;8.13;;;6.47;;
11854;SDS011;5987;53.140;8.904;2023-04-24T08:39:44;7.77;;;6.63;;
11854;SDS011;5987;53.140;8.904;2023-04-24T08:42:47;8.37;;;6.40;;
11854;SDS011;5987;53.140;8.904;2023-04-24T08:45:56;8.33;;;6.60;;
11854;SDS011;5987;53.140;8.904;2023-04-24T08:49:02;10.73;;;6.60;;
11854;SDS011;5987;53.140;8.904;2023-04-24T08:52:07;9.00;;;7.03;;
11854;SDS011;5987;53.140;8.904;2023-04-24T08:55:14;12.33;;;6.73;;
11854;SDS011;5987;53.140;8.904;2023-04-24T08:58:19;8.53;;;6.80;;
11854;SDS011;5987;53.140;8.904;2023-04-24T09:01:23;10.43;;;7.13;;
11854;SDS011;5987;53.140;8.904;2023-04-24T09:04:31;8.90;;;7.87;;
11854;SDS011;5987;53.140;8.904;2023-04-24T09:07:39;11.57;;;8.23;;
11854;SDS011;5987;53.140;8.904;2023-04-24T09:10:47;11.23;;;7.87;;
11854;SDS011;5987;53.140;8.904;2023-04-24T09:13:52;13.43;;;8.83;;
11854;SDS011;5987;53.140;8.904;2023-04-24T09:16:56;14.20;;;9.57;;
11854;SDS011;5987;53.140;8.904;2023-04-24T09:20:02;12.80;;;9.33;;
11854;SDS011;5987;53.140;8.904;2023-04-24T09:23:07;13.57;;;9.63;;
11854;SDS011;5987;53.140;8.904;2023-04-24T09:26:17;11.27;;;9.37;;
11854;SDS011;5987;53.140;8.904;2023-04-24T09:29:21;13.83;;;10.83;;
11854;SDS011;5987;53.140;8.904;2023-04-24T09:32:25;19.33;;;11.47;;
11854;SDS011;5987;53.140;8.904;2023-04-24T09:35:31;12.93;;;10.60;;
11854;SDS011;5987;53.140;8.904;2023-04-24T09:38:36;16.90;;;11.43;;
11854;SDS011;5987;53.140;8.904;2023-04-24T09:41:44;15.40;;;11.60;;
11854;SDS011;5987;53.140;8.904;2023-04-24T09:44:49;15.90;;;11.57;;
11854;SDS011;5987;53.140;8.904;2023-04-24T09:48:05;15.30;;;11.17;;
11854;SDS011;5987;53.140;8.904;2023-04-24T09:51:13;13.73;;;11.03;;
11854;SDS011;5987;53.140;8.904;2023-04-24T09:54:17;11.40;;;9.67;;
11854;SDS011;5987;53.140;8.904;2023-04-24T09:57:23;14.70;;;10.70;;
11854;SDS011;5987;53.140;8.904;2023-04-24T10:00:27;12.07;;;10.33;;
11854;SDS011;5987;53.140;8.904;2023-04-24T10:03:33;11.80;;;9.97;;
11854;SDS011;5987;53.140;8.904;2023-04-24T10:06:39;10.93;;;9.57;;
11854;SDS011;5987;53.140;8.904;2023-04-24T10:09:46;13.63;;;9.40;;
11854;SDS011;5987;53.140;8.904;2023-04-24T10:12:50;11.57;;;9.17;;
11854;SDS011;5987;53.140;8.904;2023-04-24T10:16:03;11.33;;;9.10;;
11854;SDS011;5987;53.140;8.904;2023-04-24T10:19:09;12.23;;;9.73;;
11854;SDS011;5987;53.140;8.904;2023-04-24T10:22:16;12.17;;;9.57;;
11854;SDS011;5987;53.140;8.904;2023-04-24T10:25:22;9.93;;;8.57;;
11854;SDS011;5987;53.140;8.904;2023-04-24T10:28:28;11.43;;;8.13;;
11854;SDS011;5987;53.140;8.904;2023-04-24T10:31:36;10.07;;;7.80;;
11854;SDS011;5987;53.140;8.904;2023-04-24T10:34:41;12.03;;;8.23;;
11854;SDS011;5987;53.140;8.904;2023-04-24T10:37:48;11.70;;;7.57;;
11854;SDS011;5987;53.140;8.904;2023-04-24T10:40:57;9.10;;;7.53;;
11854;SDS011;5987;53.140;8.904;2023-04-24T10:44:12;8.67;;;7.63;;
11854;SDS011;5987;53.140;8.904;2023-04-24T10:47:18;10.43;;;8.10;;
11854;SDS011;5987;53.140;8.904;2023-04-24T10:50:21;12.67;;;7.90;;
11854;SDS011;5987;53.140;8.904;2023-04-24T10:53:28;8.43;;;7.53;;
11854;SDS011;5987;53.140;8.904;2023-04-24T10:56:33;8.73;;;7.77;;
11854;SDS011;5987;53.140;8.904;2023-04-24T10:59:36;10.60;;;7.30;;
11854;SDS011;5987;53.140;8.904;2023-04-24T11:02:40;7.73;;;6.93;;
11854;SDS011;5987;53.140;8.904;2023-04-24T11:05:51;8.37;;;7.13;;
11854;SDS011;5987;53.140;8.904;2023-04-24T11:09:03;7.33;;;6.73;;
11854;SDS011;5987;53.140;8.904;2023-04-24T11:12:09;7.13;;;6.43;;
11854;SDS011;5987;53.140;8.904;2023-04-24T11:15:17;9.03;;;6.80;;
11854;SDS011;5987;53.140;8.904;2023-04-24T11:18:21;7.90;;;7.07;;
11854;SDS011;5987;53.140;8.904;2023-04-24T11:21:27;8.13;;;6.80;;
11854;SDS011;5987;53.140;8.904;2023-04-24T11:24:38;6.73;;;5.93;;
11854;SDS011;5987;53.140;8.904;2023-04-24T11:28:02;6.90;;;6.23;;
11854;SDS011;5987;53.140;8.904;2023-04-24T11:34:40;6.67;;;5.87;;
11854;SDS011;5987;53.140;8.904;2023-04-24T11:37:48;7.43;;;6.27;;
11854;SDS011;5987;53.140;8.904;2023-04-24T11:41:15;8.17;;;6.97;;
11854;SDS011;5987;53.140;8.904;2023-04-24T11:44:19;8.70;;;6.20;;
11854;SDS011;5987;53.140;8.904;2023-04-24T11:47:27;7.67;;;6.50;;
11854;SDS011;5987;53.140;8.904;2023-04-24T11:50:34;5.47;;;4.77;;
11854;SDS011;5987;53.140;8.904;2023-04-24T11:53:37;6.87;;;5.17;;
11854;SDS011;5987;53.140;8.904;2023-04-24T11:56:45;7.07;;;5.67;;
11854;SDS011;5987;53.140;8.904;2023-04-24T11:59:49;6.30;;;5.70;;
11854;SDS011;5987;53.140;8.904;2023-04-24T12:03:03;9.60;;;6.00;;
11854;SDS011;5987;53.140;8.904;2023-04-24T12:06:10;6.57;;;5.97;;
11854;SDS011;5987;53.140;8.904;2023-04-24T12:09:15;6.90;;;6.20;;
11854;SDS011;5987;53.140;8.904;2023-04-24T12:12:20;7.97;;;5.90;;
11854;SDS011;5987;53.140;8.904;2023-04-24T12:15:28;9.47;;;6.87;;
11854;SDS011;5987;53.140;8.904;2023-04-24T12:18:32;7.90;;;7.10;;
11854;SDS011;5987;53.140;8.904;2023-04-24T12:21:36;8.43;;;7.27;;
11854;SDS011;5987;53.140;8.904;2023-04-24T12:28:10;8.53;;;7.63;;
11854;SDS011;5987;53.140;8.904;2023-04-24T12:31:15;11.87;;;9.07;;
11854;SDS011;5987;53.140;8.904;2023-04-24T12:34:20;9.17;;;8.20;;
11854;SDS011;5987;53.140;8.904;2023-04-24T12:37:25;9.27;;;8.20;;
11854;SDS011;5987;53.140;8.904;2023-04-24T12:40:35;9.60;;;7.23;;
11854;SDS011;5987;53.140;8.904;2023-04-24T12:43:50;9.33;;;7.33;;
11854;SDS011;5987;53.140;8.904;2023-04-24T12:46:55;9.07;;;7.40;;
11854;SDS011;5987;53.140;8.904;2023-04-24T12:49:59;9.20;;;7.17;;
11854;SDS011;5987;53.140;8.904;2023-04-24T12:53:03;8.90;;;7.23;;
11854;SDS011;5987;53.140;8.904;2023-04-24T12:56:08;8.53;;;7.30;;
11854;SDS011;5987;53.140;8.904;2023-04-24T12:59:13;9.07;;;6.80;;
11854;SDS011;5987;53.140;8.904;2023-04-24T13:02:16;10.23;;;8.10;;
11854;SDS011;5987;53.140;8.904;2023-04-24T13:05:20;9.73;;;7.60;;
11854;SDS011;5987;53.140;8.904;2023-04-24T13:08:25;8.27;;;7.47;;
11854;SDS011;5987;53.140;8.904;2023-04-24T13:11:29;8.20;;;7.17;;
11854;SDS011;5987;53.140;8.904;2023-04-24T13:14:34;7.97;;;6.50;;
11854;SDS011;5987;53.140;8.904;2023-04-24T13:17:40;9.40;;;6.50;;
11854;SDS011;5987;53.140;8.904;2023-04-24T13:20:43;6.70;;;6.00;;
11854;SDS011;5987;53.140;8.904;2023-04-24T13:23:48;3.70;;;3.30;;
11854;SDS011;5987;53.140;8.904;2023-04-24T13:26:53;5.47;;;3.10;;
11854;SDS011;5987;53.140;8.904;2023-04-24T13:29:59;9.10;;;5.37;;
11854;SDS011;5987;53.140;8.904;2023-04-24T13:33:03;11.17;;;6.00;;
11854;SDS011;5987;53.140;8.904;2023-04-24T13:36:07;11.40;;;7.50;;
11854;SDS011;5987;53.140;8.904;2023-04-24T13:39:11;11.57;;;8.63;;
11854;SDS011;5987;53.140;8.904;2023-04-24T13:42:14;13.90;;;8.93;;
11854;SDS011;5987;53.140;8.904;2023-04-24T13:45:28;12.93;;;8.87;;
11854;SDS011;5987;53.140;8.904;2023-04-24T13:48:32;12.63;;;8.03;;
11854;SDS011;5987;53.140;8.904;2023-04-24T13:51:35;13.70;;;8.43;;
11854;SDS011;5987;53.140;8.904;2023-04-24T13:54:39;13.87;;;7.20;;
11854;SDS011;5987;53.140;8.904;2023-04-24T13:57:42;10.33;;;7.50;;
11854;SDS011;5987;53.140;8.904;2023-04-24T14:00:47;9.37;;;6.53;;
11854;SDS011;5987;53.140;8.904;2023-04-24T14:03:51;9.27;;;6.93;;
11854;SDS011;5987;53.140;8.904;2023-04-24T14:06:55;11.60;;;6.73;;
11854;SDS011;5987;53.140;8.904;2023-04-24T14:09:59;11.97;;;6.73;;
11854;SDS011;5987;53.140;8.904;2023-04-24T14:13:02;14.57;;;7.73;;
11854;SDS011;5987;53.140;8.904;2023-04-24T14:16:08;12.47;;;7.20;;
11854;SDS011;5987;53.140;8.904;2023-04-24T14:19:12;15.17;;;7.87;;
11854;SDS011;5987;53.140;8.904;2023-04-24T14:22:16;14.27;;;7.83;;
11854;SDS011;5987;53.140;8.904;2023-04-24T14:25:19;10.20;;;7.27;;
11854;SDS011;5987;53.140;8.904;2023-04-24T14:28:24;9.23;;;7.30;;
11854;SDS011;5987;53.140;8.904;2023-04-24T14:31:29;12.00;;;7.27;;
11854;SDS011;5987;53.140;8.904;2023-04-24T14:34:33;15.40;;;7.87;;
11854;SDS011;5987;53.140;8.904;2023-04-24T14:37:37;10.80;;;6.17;;
11854;SDS011;5987;53.140;8.904;2023-04-24T14:40:42;11.67;;;6.43;;
11854;SDS011;5987;53.140;8.904;2023-04-24T14:44:06;8.30;;;5.70;;
11854;SDS011;5987;53.140;8.904;2023-04-24T14:47:11;12.30;;;5.57;;
11854;SDS011;5987;53.140;8.904;2023-04-24T14:50:15;9.13;;;5.77;;
11854;SDS011;5987;53.140;8.904;2023-04-24T14:53:19;9.00;;;5.00;;
11854;SDS011;5987;53.140;8.904;2023-04-24T14:56:23;9.00;;;4.47;;
11854;SDS011;5987;53.140;8.904;2023-04-24T14:59:27;7.07;;;4.27;;
11854;SDS011;5987;53.140;8.904;2023-04-24T15:02:33;8.87;;;4.67;;
11854;SDS011;5987;53.140;8.904;2023-04-24T15:05:39;14.07;;;4.90;;
11854;SDS011;5987;53.140;8.904;2023-04-24T15:08:42;10.23;;;4.87;;
11854;SDS011;5987;53.140;8.904;2023-04-24T15:11:49;10.50;;;5.23;;
11854;SDS011;5987;53.140;8.904;2023-04-24T15:14:53;11.50;;;5.47;;
11854;SDS011;5987;53.140;8.904;2023-04-24T15:17:58;9.00;;;5.47;;
11854;SDS011;5987;53.140;8.904;2023-04-24T15:21:02;13.30;;;7.00;;
11854;SDS011;5987;53.140;8.904;2023-04-24T15:24:06;11.23;;;5.57;;
11854;SDS011;5987;53.140;8.904;2023-04-24T15:27:10;9.37;;;4.90;;
11854;SDS011;5987;53.140;8.904;2023-04-24T15:30:14;11.47;;;6.37;;
11854;SDS011;5987;53.140;8.904;2023-04-24T15:33:19;10.27;;;5.77;;
11854;SDS011;5987;53.140;8.904;2023-04-24T15:36:23;11.00;;;5.37;;
11854;SDS011;5987;53.140;8.904;2023-04-24T15:39:26;9.33;;;5.27;;
11854;SDS011;5987;53.140;8.904;2023-04-24T15:42:30;7.70;;;4.47;;
11854;SDS011;5987;53.140;8.904;2023-04-24T15:45:33;11.93;;;5.27;;
11854;SDS011;5987;53.140;8.904;2023-04-24T15:48:39;11.17;;;5.20;;
11854;SDS011;5987;53.140;8.904;2023-04-24T15:51:44;11.60;;;5.60;;
11854;SDS011;5987;53.140;8.904;2023-04-24T15:54:48;10.43;;;5.43;;
11854;SDS011;5987;53.140;8.904;2023-04-24T15:57:51;7.37;;;4.63;;
11854;SDS011;5987;53.140;8.904;2023-04-24T16:00:55;11.93;;;5.60;;
11854;SDS011;5987;53.140;8.904;2023-04-24T16:04:01;13.13;;;5.20;;
11854;SDS011;5987;53.140;8.904;2023-04-24T16:07:04;8.90;;;5.03;;
11854;SDS011;5987;53.140;8.904;2023-04-24T16:10:10;5.20;;;3.47;;
11854;SDS011;5987;53.140;8.904;2023-04-24T16:13:14;3.63;;;2.73;;
11854;SDS011;5987;53.140;8.904;2023-04-24T16:16:19;12.40;;;3.60;;
11854;SDS011;5987;53.140;8.904;2023-04-24T16:19:26;11.20;;;3.90;;
11854;SDS011;5987;53.140;8.904;2023-04-24T16:22:30;10.50;;;4.00;;
11854;SDS011;5987;53.140;8.904;2023-04-24T16:25:33;5.50;;;3.47;;
11854;SDS011;5987;53.140;8.904;2023-04-24T16:28:37;6.30;;;3.70;;
11854;SDS011;5987;53.140;8.904;2023-04-24T16:31:41;6.63;;;3.30;;
11854;SDS011;5987;53.140;8.904;2023-04-24T16:34:46;6.10;;;2.97;;
11854;SDS011;5987;53.140;8.904;2023-04-24T16:37:50;6.10;;;2.97;;
11854;SDS011;5987;53.140;8.904;2023-04-24T16:40:53;8.50;;;2.67;;
11854;SDS011;5987;53.140;8.904;2023-04-24T16:43:57;5.17;;;2.97;;
11854;SDS011;5987;53.140;8.904;2023-04-24T16:47:00;7.77;;;3.00;;
11854;SDS011;5987;53.140;8.904;2023-04-24T16:50:06;5.40;;;3.10;;
11854;SDS011;5987;53.140;8.904;2023-04-24T16:53:10;5.27;;;3.30;;
11854;SDS011;5987;53.140;8.904;2023-04-24T16:56:14;6.73;;;3.70;;
11854;SDS011;5987;53.140;8.904;2023-04-24T16:59:17;9.30;;;3.30;;
11854;SDS011;5987;53.140;8.904;2023-04-24T17:02:21;6.10;;;3.33;;
11854;SDS011;5987;53.140;8.904;2023-04-24T17:05:26;8.03;;;3.60;;
11854;SDS011;5987;53.140;8.904;2023-04-24T17:08:30;6.87;;;4.07;;
11854;SDS011;5987;53.140;8.904;2023-04-24T17:11:34;10.00;;;4.13;;
11854;SDS011;5987;53.140;8.904;2023-04-24T17:14:37;6.83;;;4.33;;
11854;SDS011;5987;53.140;8.904;2023-04-24T17:17:41;10.30;;;4.87;;
11854;SDS011;5987;53.140;8.904;2023-04-24T17:20:48;10.87;;;4.47;;
11854;SDS011;5987;53.140;8.904;2023-04-24T17:23:51;6.83;;;3.77;;
11854;SDS011;5987;53.140;8.904;2023-04-24T17:26:55;9.80;;;5.27;;
11854;SDS011;5987;53.140;8.904;2023-04-24T17:30:14;8.07;;;3.93;;
11854;SDS011;5987;53.140;8.904;2023-04-24T17:33:18;4.20;;;2.87;;
11854;SDS011;5987;53.140;8.904;2023-04-24T17:36:23;8.00;;;2.40;;
11854;SDS011;5987;53.140;8.904;2023-04-24T17:39:27;3.57;;;3.00;;
11854;SDS011;5987;53.140;8.904;2023-04-24T17:42:30;6.60;;;3.20;;
11854;SDS011;5987;53.140;8.904;2023-04-24T17:45:34;4.57;;;2.57;;
11854;SDS011;5987;53.140;8.904;2023-04-24T17:48:38;5.57;;;2.60;;
11854;SDS011;5987;53.140;8.904;2023-04-24T17:51:43;5.83;;;2.60;;
11854;SDS011;5987;53.140;8.904;2023-04-24T17:54:46;5.87;;;3.07;;
11854;SDS011;5987;53.140;8.904;2023-04-24T17:57:50;8.00;;;2.80;;
11854;SDS011;5987;53.140;8.904;2023-04-24T18:00:53;8.37;;;3.20;;
11854;SDS011;5987;53.140;8.904;2023-04-24T18:03:57;8.43;;;2.43;;
11854;SDS011;5987;53.140;8.904;2023-04-24T18:07:02;9.50;;;2.97;;
11854;SDS011;5987;53.140;8.904;2023-04-24T18:10:06;6.83;;;2.70;;
11854;SDS011;5987;53.140;8.904;2023-04-24T18:13:10;4.97;;;2.73;;
11854;SDS011;5987;53.140;8.904;2023-04-24T18:16:14;4.97;;;2.63;;
11854;SDS011;5987;53.140;8.904;2023-04-24T18:19:18;5.27;;;2.50;;
11854;SDS011;5987;53.140;8.904;2023-04-24T18:22:23;4.83;;;2.57;;
11854;SDS011;5987;53.140;8.904;2023-04-24T18:25:27;8.00;;;2.50;;
11854;SDS011;5987;53.140;8.904;2023-04-24T18:28:31;6.50;;;2.70;;
11854;SDS011;5987;53.140;8.904;2023-04-24T18:31:35;8.73;;;3.47;;
11854;SDS011;5987;53.140;8.904;2023-04-24T18:34:38;5.73;;;3.13;;
11854;SDS011;5987;53.140;8.904;2023-04-24T18:37:43;6.30;;;2.83;;
11854;SDS011;5987;53.140;8.904;2023-04-24T18:40:47;9.50;;;3.03;;
11854;SDS011;5987;53.140;8.904;2023-04-24T18:43:51;5.17;;;3.17;;
11854;SDS011;5987;53.140;8.904;2023-04-24T18:46:58;4.63;;;2.57;;
11854;SDS011;5987;53.140;8.904;2023-04-24T18:50:02;9.03;;;2.77;;
11854;SDS011;5987;53.140;8.904;2023-04-24T18:53:07;9.90;;;3.50;;